EGPF/GLA METAR and TAF weather

Enter ICAO airport designator
Station Type Date Time Source
EGPF METAR 2018/01/19 17:20 UTC NOAA

EGPF 191720Z AUTO 23009KT 9999 SCT017 01/00 Q0999


Station Type Date Time Source
EGPF Decoded METAR 2018/01/19 17:20 UTC NOAA

Glasgow Airport, United Kingdom (EGPF) 55-52N 004-26W 0M
Jan 19, 2018 - 12:20 PM EST / 2018.01.19 1720 UTC
Wind: from the SW (230 degrees) at 10 MPH (9 KT):0
Visibility: greater than 7 mile(s):0
Sky conditions: partly cloudy
Temperature: 33 F (1 C)
Windchill: 24 F (-4 C):1
Dew Point: 32 F (0 C)
Relative Humidity: 93%
Pressure (altimeter): 29.50 in. Hg (0999 hPa)
ob: EGPF 191720Z AUTO 23009KT 9999 SCT017 01/00 Q0999
cycle: 17

Station Type Date Time Source
EGPF TAF 2018/01/19 18:15 UTC NOAA

TAF EGPF 191700Z 1918/2018 25009KT 9999 FEW012 SCT025
TEMPO 1918/1924 3000 SHRASN BKN004 PROB30
TEMPO 2000/2011 4000 SHRASN BKN006


Example: see airport list